sensor_id;sensor_type;location;lat;lon;timestamp;temperature;humidity
18229;DHT22;9239;50.932;3.142;2024-01-06T00:00:02;6.70;99.90
18229;DHT22;9239;50.932;3.142;2024-01-06T00:02:29;6.70;99.90
18229;DHT22;9239;50.932;3.142;2024-01-06T00:04:56;6.70;99.90
18229;DHT22;9239;50.932;3.142;2024-01-06T00:07:23;6.70;99.90
18229;DHT22;9239;50.932;3.142;2024-01-06T00:09:50;6.70;99.90
18229;DHT22;9239;50.932;3.142;2024-01-06T00:12:17;6.70;99.90
18229;DHT22;9239;50.932;3.142;2024-01-06T00:14:46;6.70;99.90
18229;DHT22;9239;50.932;3.142;2024-01-06T00:17:15;6.70;99.90
18229;DHT22;9239;50.932;3.142;2024-01-06T00:19:43;6.70;99.90
18229;DHT22;9239;50.932;3.142;2024-01-06T00:22:10;6.60;99.90
18229;DHT22;9239;50.932;3.142;2024-01-06T00:24:37;6.70;99.90
18229;DHT22;9239;50.932;3.142;2024-01-06T00:27:04;6.60;99.90
18229;DHT22;9239;50.932;3.142;2024-01-06T00:29:31;6.60;99.90
18229;DHT22;9239;50.932;3.142;2024-01-06T00:32:00;6.70;99.90
18229;DHT22;9239;50.932;3.142;2024-01-06T00:34:26;6.60;99.90
18229;DHT22;9239;50.932;3.142;2024-01-06T00:36:53;6.60;99.90
18229;DHT22;9239;50.932;3.142;2024-01-06T00:39:21;6.60;99.90
18229;DHT22;9239;50.932;3.142;2024-01-06T00:41:47;6.60;99.90
18229;DHT22;9239;50.932;3.142;2024-01-06T00:44:14;6.60;99.90
18229;DHT22;9239;50.932;3.142;2024-01-06T00:46:41;6.60;99.90
18229;DHT22;9239;50.932;3.142;2024-01-06T00:49:09;6.60;99.90
18229;DHT22;9239;50.932;3.142;2024-01-06T00:51:36;6.60;99.90
18229;DHT22;9239;50.932;3.142;2024-01-06T00:54:03;6.60;99.90
18229;DHT22;9239;50.932;3.142;2024-01-06T00:56:30;6.60;99.90
18229;DHT22;9239;50.932;3.142;2024-01-06T00:58:57;6.60;99.90
18229;DHT22;9239;50.932;3.142;2024-01-06T01:01:24;6.60;99.90
18229;DHT22;9239;50.932;3.142;2024-01-06T01:03:51;6.60;99.90
18229;DHT22;9239;50.932;3.142;2024-01-06T01:06:18;6.60;99.90
18229;DHT22;9239;50.932;3.142;2024-01-06T01:08:45;6.60;99.90
18229;DHT22;9239;50.932;3.142;2024-01-06T01:11:12;6.60;99.90
18229;DHT22;9239;50.932;3.142;2024-01-06T01:13:39;6.60;99.90
18229;DHT22;9239;50.932;3.142;2024-01-06T01:16:06;6.60;99.90
18229;DHT22;9239;50.932;3.142;2024-01-06T01:18:33;6.60;99.90
18229;DHT22;9239;50.932;3.142;2024-01-06T01:21:00;6.60;99.90
18229;DHT22;9239;50.932;3.142;2024-01-06T01:23:28;6.50;99.90
18229;DHT22;9239;50.932;3.142;2024-01-06T01:25:55;6.60;99.90
18229;DHT22;9239;50.932;3.142;2024-01-06T01:28:22;6.60;99.90
18229;DHT22;9239;50.932;3.142;2024-01-06T01:30:49;6.60;99.90
18229;DHT22;9239;50.932;3.142;2024-01-06T01:33:16;6.60;99.90
18229;DHT22;9239;50.932;3.142;2024-01-06T01:35:43;6.60;99.90
18229;DHT22;9239;50.932;3.142;2024-01-06T01:38:10;6.60;99.90
18229;DHT22;9239;50.932;3.142;2024-01-06T01:40:38;6.70;99.90
18229;DHT22;9239;50.932;3.142;2024-01-06T01:43:05;6.60;99.90
18229;DHT22;9239;50.932;3.142;2024-01-06T01:45:32;6.60;99.90
18229;DHT22;9239;50.932;3.142;2024-01-06T01:47:59;6.60;99.90
18229;DHT22;9239;50.932;3.142;2024-01-06T01:50:26;6.60;99.90
18229;DHT22;9239;50.932;3.142;2024-01-06T01:52:56;6.60;99.90
18229;DHT22;9239;50.932;3.142;2024-01-06T01:55:23;6.60;99.90
18229;DHT22;9239;50.932;3.142;2024-01-06T01:57:51;6.60;99.90
18229;DHT22;9239;50.932;3.142;2024-01-06T02:00:19;6.60;99.90
18229;DHT22;9239;50.932;3.142;2024-01-06T02:02:46;6.50;99.90
18229;DHT22;9239;50.932;3.142;2024-01-06T02:05:14;6.50;99.90
18229;DHT22;9239;50.932;3.142;2024-01-06T02:07:41;6.50;99.90
18229;DHT22;9239;50.932;3.142;2024-01-06T02:10:09;6.60;99.90
18229;DHT22;9239;50.932;3.142;2024-01-06T02:12:36;6.60;99.90
18229;DHT22;9239;50.932;3.142;2024-01-06T02:15:05;6.60;99.90
18229;DHT22;9239;50.932;3.142;2024-01-06T02:17:32;6.70;99.90
18229;DHT22;9239;50.932;3.142;2024-01-06T02:19:59;6.70;99.90
18229;DHT22;9239;50.932;3.142;2024-01-06T02:22:27;6.70;99.90
18229;DHT22;9239;50.932;3.142;2024-01-06T02:24:54;6.70;99.90
18229;DHT22;9239;50.932;3.142;2024-01-06T02:27:21;6.70;99.90
18229;DHT22;9239;50.932;3.142;2024-01-06T02:29:48;6.60;99.90
18229;DHT22;9239;50.932;3.142;2024-01-06T02:32:15;6.60;99.90
18229;DHT22;9239;50.932;3.142;2024-01-06T02:34:42;6.60;99.90
18229;DHT22;9239;50.932;3.142;2024-01-06T02:37:09;6.70;99.90
18229;DHT22;9239;50.932;3.142;2024-01-06T02:39:38;6.70;99.90
18229;DHT22;9239;50.932;3.142;2024-01-06T02:42:06;6.70;99.90
18229;DHT22;9239;50.932;3.142;2024-01-06T02:44:32;6.70;99.90
18229;DHT22;9239;50.932;3.142;2024-01-06T02:46:59;6.70;99.90
18229;DHT22;9239;50.932;3.142;2024-01-06T02:49:26;6.70;99.90
18229;DHT22;9239;50.932;3.142;2024-01-06T02:51:53;6.80;99.90
18229;DHT22;9239;50.932;3.142;2024-01-06T02:54:20;6.70;99.90
18229;DHT22;9239;50.932;3.142;2024-01-06T02:56:48;6.70;99.90
18229;DHT22;9239;50.932;3.142;2024-01-06T02:59:15;6.70;99.90
18229;DHT22;9239;50.932;3.142;2024-01-06T03:01:42;6.70;99.90
18229;DHT22;9239;50.932;3.142;2024-01-06T03:04:09;6.70;99.90
18229;DHT22;9239;50.932;3.142;2024-01-06T03:06:36;6.70;99.90
18229;DHT22;9239;50.932;3.142;2024-01-06T03:09:03;6.70;99.90
18229;DHT22;9239;50.932;3.142;2024-01-06T03:11:30;6.70;99.90
18229;DHT22;9239;50.932;3.142;2024-01-06T03:13:58;6.60;99.90
18229;DHT22;9239;50.932;3.142;2024-01-06T03:16:25;6.70;99.90
18229;DHT22;9239;50.932;3.142;2024-01-06T03:18:52;6.70;99.90
18229;DHT22;9239;50.932;3.142;2024-01-06T03:21:19;6.70;99.90
18229;DHT22;9239;50.932;3.142;2024-01-06T03:23:47;6.70;99.90
18229;DHT22;9239;50.932;3.142;2024-01-06T03:26:14;6.70;99.90
18229;DHT22;9239;50.932;3.142;2024-01-06T03:28:41;6.70;99.90
18229;DHT22;9239;50.932;3.142;2024-01-06T03:31:10;6.70;99.90
18229;DHT22;9239;50.932;3.142;2024-01-06T03:33:37;6.70;99.90
18229;DHT22;9239;50.932;3.142;2024-01-06T03:36:05;6.60;99.90
18229;DHT22;9239;50.932;3.142;2024-01-06T03:38:32;6.60;99.90
18229;DHT22;9239;50.932;3.142;2024-01-06T03:40:59;6.60;99.90
18229;DHT22;9239;50.932;3.142;2024-01-06T03:43:26;6.60;99.90
18229;DHT22;9239;50.932;3.142;2024-01-06T03:45:53;6.60;99.90
18229;DHT22;9239;50.932;3.142;2024-01-06T03:48:22;6.60;99.90
18229;DHT22;9239;50.932;3.142;2024-01-06T03:50:49;6.70;99.90
18229;DHT22;9239;50.932;3.142;2024-01-06T03:53:16;6.70;99.90
18229;DHT22;9239;50.932;3.142;2024-01-06T03:55:43;6.70;99.90
18229;DHT22;9239;50.932;3.142;2024-01-06T03:58:10;6.70;99.90
18229;DHT22;9239;50.932;3.142;2024-01-06T04:00:37;6.60;99.90
18229;DHT22;9239;50.932;3.142;2024-01-06T04:03:04;6.60;99.90
18229;DHT22;9239;50.932;3.142;2024-01-06T04:05:33;6.70;99.90
18229;DHT22;9239;50.932;3.142;2024-01-06T04:08:00;6.60;99.90
18229;DHT22;9239;50.932;3.142;2024-01-06T04:10:27;6.70;99.90
18229;DHT22;9239;50.932;3.142;2024-01-06T04:12:54;6.70;99.90
18229;DHT22;9239;50.932;3.142;2024-01-06T04:15:21;6.70;99.90
18229;DHT22;9239;50.932;3.142;2024-01-06T04:17:48;6.70;99.90
18229;DHT22;9239;50.932;3.142;2024-01-06T04:20:15;6.70;99.90
18229;DHT22;9239;50.932;3.142;2024-01-06T04:22:44;6.70;99.90
18229;DHT22;9239;50.932;3.142;2024-01-06T04:25:11;6.70;99.90
18229;DHT22;9239;50.932;3.142;2024-01-06T04:27:38;6.70;99.90
18229;DHT22;9239;50.932;3.142;2024-01-06T04:30:06;6.60;99.90
18229;DHT22;9239;50.932;3.142;2024-01-06T04:32:33;6.60;99.90
18229;DHT22;9239;50.932;3.142;2024-01-06T04:34:59;6.60;99.90
18229;DHT22;9239;50.932;3.142;2024-01-06T04:37:26;6.60;99.90
18229;DHT22;9239;50.932;3.142;2024-01-06T04:39:55;6.60;99.90
18229;DHT22;9239;50.932;3.142;2024-01-06T04:42:22;6.60;99.90
18229;DHT22;9239;50.932;3.142;2024-01-06T04:44:49;6.60;99.90
18229;DHT22;9239;50.932;3.142;2024-01-06T04:47:16;6.60;99.90
18229;DHT22;9239;50.932;3.142;2024-01-06T04:49:43;6.60;99.90
18229;DHT22;9239;50.932;3.142;2024-01-06T04:52:10;6.60;99.90
18229;DHT22;9239;50.932;3.142;2024-01-06T04:54:37;6.60;99.90
18229;DHT22;9239;50.932;3.142;2024-01-06T04:57:05;6.60;99.90
18229;DHT22;9239;50.932;3.142;2024-01-06T04:59:32;6.60;99.90
18229;DHT22;9239;50.932;3.142;2024-01-06T05:02:00;6.60;99.90
18229;DHT22;9239;50.932;3.142;2024-01-06T05:04:27;6.60;99.90
18229;DHT22;9239;50.932;3.142;2024-01-06T05:06:54;6.60;99.90
18229;DHT22;9239;50.932;3.142;2024-01-06T05:09:21;6.60;99.90
18229;DHT22;9239;50.932;3.142;2024-01-06T05:11:48;6.60;99.90
18229;DHT22;9239;50.932;3.142;2024-01-06T05:14:16;6.60;99.90
18229;DHT22;9239;50.932;3.142;2024-01-06T05:16:43;6.60;99.90
18229;DHT22;9239;50.932;3.142;2024-01-06T05:19:10;6.60;99.90
18229;DHT22;9239;50.932;3.142;2024-01-06T05:21:37;6.60;99.90
18229;DHT22;9239;50.932;3.142;2024-01-06T05:24:05;6.60;99.90
18229;DHT22;9239;50.932;3.142;2024-01-06T05:26:32;6.60;99.90
18229;DHT22;9239;50.932;3.142;2024-01-06T05:28:59;6.70;99.90
18229;DHT22;9239;50.932;3.142;2024-01-06T05:31:27;6.60;99.90
18229;DHT22;9239;50.932;3.142;2024-01-06T05:33:54;6.60;99.90
18229;DHT22;9239;50.932;3.142;2024-01-06T05:36:21;6.70;99.90
18229;DHT22;9239;50.932;3.142;2024-01-06T05:38:48;6.60;99.90
18229;DHT22;9239;50.932;3.142;2024-01-06T05:41:15;6.70;99.90
18229;DHT22;9239;50.932;3.142;2024-01-06T05:43:42;6.70;99.90
18229;DHT22;9239;50.932;3.142;2024-01-06T05:46:09;6.70;99.90
18229;DHT22;9239;50.932;3.142;2024-01-06T05:48:37;6.70;99.90
18229;DHT22;9239;50.932;3.142;2024-01-06T05:51:06;6.70;99.90
18229;DHT22;9239;50.932;3.142;2024-01-06T05:53:33;6.70;99.90
18229;DHT22;9239;50.932;3.142;2024-01-06T05:56:00;6.80;99.90
18229;DHT22;9239;50.932;3.142;2024-01-06T05:58:27;6.80;99.90
18229;DHT22;9239;50.932;3.142;2024-01-06T06:00:54;6.80;99.90
18229;DHT22;9239;50.932;3.142;2024-01-06T06:03:21;6.80;99.90
18229;DHT22;9239;50.932;3.142;2024-01-06T06:05:49;6.80;99.90
18229;DHT22;9239;50.932;3.142;2024-01-06T06:08:16;6.80;99.90
18229;DHT22;9239;50.932;3.142;2024-01-06T06:10:43;6.80;99.90
18229;DHT22;9239;50.932;3.142;2024-01-06T06:13:27;6.80;99.90
18229;DHT22;9239;50.932;3.142;2024-01-06T06:15:54;6.80;99.90
18229;DHT22;9239;50.932;3.142;2024-01-06T06:18:21;6.70;99.90
18229;DHT22;9239;50.932;3.142;2024-01-06T06:20:49;6.70;99.90
18229;DHT22;9239;50.932;3.142;2024-01-06T06:23:16;6.70;99.90
18229;DHT22;9239;50.932;3.142;2024-01-06T06:25:43;6.80;99.90
18229;DHT22;9239;50.932;3.142;2024-01-06T06:28:10;6.80;99.90
18229;DHT22;9239;50.932;3.142;2024-01-06T06:30:37;6.70;99.90
18229;DHT22;9239;50.932;3.142;2024-01-06T06:33:05;6.80;99.90
18229;DHT22;9239;50.932;3.142;2024-01-06T06:35:32;6.80;99.90
18229;DHT22;9239;50.932;3.142;2024-01-06T06:38:00;6.80;99.90
18229;DHT22;9239;50.932;3.142;2024-01-06T06:40:27;6.80;99.90
18229;DHT22;9239;50.932;3.142;2024-01-06T06:42:54;6.90;99.90
18229;DHT22;9239;50.932;3.142;2024-01-06T06:45:21;6.90;99.90
18229;DHT22;9239;50.932;3.142;2024-01-06T06:47:49;6.90;99.90
18229;DHT22;9239;50.932;3.142;2024-01-06T06:50:16;6.90;99.90
18229;DHT22;9239;50.932;3.142;2024-01-06T06:52:43;6.90;99.90
18229;DHT22;9239;50.932;3.142;2024-01-06T06:55:11;6.90;99.90
18229;DHT22;9239;50.932;3.142;2024-01-06T06:57:39;6.90;99.90
18229;DHT22;9239;50.932;3.142;2024-01-06T07:00:06;6.90;99.90
18229;DHT22;9239;50.932;3.142;2024-01-06T07:02:34;6.90;99.90
18229;DHT22;9239;50.932;3.142;2024-01-06T07:05:01;7.00;99.90
18229;DHT22;9239;50.932;3.142;2024-01-06T07:07:28;7.00;99.90
18229;DHT22;9239;50.932;3.142;2024-01-06T07:09:54;7.00;99.90
18229;DHT22;9239;50.932;3.142;2024-01-06T07:12:23;6.90;99.90
18229;DHT22;9239;50.932;3.142;2024-01-06T07:14:50;7.00;99.90
18229;DHT22;9239;50.932;3.142;2024-01-06T07:17:17;6.90;99.90
18229;DHT22;9239;50.932;3.142;2024-01-06T07:19:43;6.80;99.90
18229;DHT22;9239;50.932;3.142;2024-01-06T07:22:11;6.80;99.90
18229;DHT22;9239;50.932;3.142;2024-01-06T07:24:37;6.80;99.90
18229;DHT22;9239;50.932;3.142;2024-01-06T07:27:04;6.70;99.90
18229;DHT22;9239;50.932;3.142;2024-01-06T07:29:33;6.70;99.90
18229;DHT22;9239;50.932;3.142;2024-01-06T07:32:00;6.70;99.90
18229;DHT22;9239;50.932;3.142;2024-01-06T07:34:26;6.60;99.90
18229;DHT22;9239;50.932;3.142;2024-01-06T07:36:53;6.60;99.90
18229;DHT22;9239;50.932;3.142;2024-01-06T07:39:20;6.60;99.90
18229;DHT22;9239;50.932;3.142;2024-01-06T07:41:49;6.60;99.90
18229;DHT22;9239;50.932;3.142;2024-01-06T07:44:16;6.70;99.90
18229;DHT22;9239;50.932;3.142;2024-01-06T07:46:49;6.60;99.90
18229;DHT22;9239;50.932;3.142;2024-01-06T07:49:16;6.60;99.90
18229;DHT22;9239;50.932;3.142;2024-01-06T07:51:43;6.70;99.90
18229;DHT22;9239;50.932;3.142;2024-01-06T07:54:10;6.60;99.90
18229;DHT22;9239;50.932;3.142;2024-01-06T07:56:37;6.60;99.90
18229;DHT22;9239;50.932;3.142;2024-01-06T07:59:04;6.60;99.90
18229;DHT22;9239;50.932;3.142;2024-01-06T08:01:31;6.60;99.90
18229;DHT22;9239;50.932;3.142;2024-01-06T08:03:59;6.60;99.90
18229;DHT22;9239;50.932;3.142;2024-01-06T08:06:26;6.60;99.90
18229;DHT22;9239;50.932;3.142;2024-01-06T08:08:53;6.60;99.90
18229;DHT22;9239;50.932;3.142;2024-01-06T08:11:21;6.60;99.90
18229;DHT22;9239;50.932;3.142;2024-01-06T08:13:48;6.60;99.90
18229;DHT22;9239;50.932;3.142;2024-01-06T08:16:14;6.60;99.90
18229;DHT22;9239;50.932;3.142;2024-01-06T08:18:42;6.60;99.90
18229;DHT22;9239;50.932;3.142;2024-01-06T08:21:10;6.60;99.90
18229;DHT22;9239;50.932;3.142;2024-01-06T08:23:37;6.60;99.90
18229;DHT22;9239;50.932;3.142;2024-01-06T08:26:04;6.60;99.90
18229;DHT22;9239;50.932;3.142;2024-01-06T08:28:31;6.60;99.90
18229;DHT22;9239;50.932;3.142;2024-01-06T08:30:58;6.60;99.90
18229;DHT22;9239;50.932;3.142;2024-01-06T08:33:25;6.60;99.90
18229;DHT22;9239;50.932;3.142;2024-01-06T08:35:52;6.60;99.90
18229;DHT22;9239;50.932;3.142;2024-01-06T08:38:20;6.70;99.90
18229;DHT22;9239;50.932;3.142;2024-01-06T08:40:48;6.70;99.90
18229;DHT22;9239;50.932;3.142;2024-01-06T08:43:15;6.70;99.90
18229;DHT22;9239;50.932;3.142;2024-01-06T08:45:42;6.80;99.90
18229;DHT22;9239;50.932;3.142;2024-01-06T08:48:10;6.80;99.90
18229;DHT22;9239;50.932;3.142;2024-01-06T08:50:39;6.80;99.90
18229;DHT22;9239;50.932;3.142;2024-01-06T08:53:06;6.80;99.90
18229;DHT22;9239;50.932;3.142;2024-01-06T08:55:34;6.80;99.90
18229;DHT22;9239;50.932;3.142;2024-01-06T08:58:01;6.80;99.90
18229;DHT22;9239;50.932;3.142;2024-01-06T09:00:28;6.80;99.90
18229;DHT22;9239;50.932;3.142;2024-01-06T09:02:55;6.80;99.90
18229;DHT22;9239;50.932;3.142;2024-01-06T09:05:22;6.80;99.90
18229;DHT22;9239;50.932;3.142;2024-01-06T09:07:49;6.90;99.90
18229;DHT22;9239;50.932;3.142;2024-01-06T09:10:16;6.90;99.90
18229;DHT22;9239;50.932;3.142;2024-01-06T09:12:45;6.90;99.90
18229;DHT22;9239;50.932;3.142;2024-01-06T09:15:12;6.90;99.90
18229;DHT22;9239;50.932;3.142;2024-01-06T09:17:39;6.90;99.90
18229;DHT22;9239;50.932;3.142;2024-01-06T09:20:06;6.90;99.90
18229;DHT22;9239;50.932;3.142;2024-01-06T09:22:33;7.10;99.90
18229;DHT22;9239;50.932;3.142;2024-01-06T09:25:00;7.10;99.90
18229;DHT22;9239;50.932;3.142;2024-01-06T09:27:27;7.10;99.90
18229;DHT22;9239;50.932;3.142;2024-01-06T09:29:56;7.10;99.90
18229;DHT22;9239;50.932;3.142;2024-01-06T09:32:22;7.10;99.90
18229;DHT22;9239;50.932;3.142;2024-01-06T09:34:49;7.10;99.90
18229;DHT22;9239;50.932;3.142;2024-01-06T09:37:16;7.20;99.90
18229;DHT22;9239;50.932;3.142;2024-01-06T09:39:43;7.10;99.90
18229;DHT22;9239;50.932;3.142;2024-01-06T09:42:10;7.20;99.90
18229;DHT22;9239;50.932;3.142;2024-01-06T09:44:37;7.20;99.90
18229;DHT22;9239;50.932;3.142;2024-01-06T09:47:06;7.20;99.90
18229;DHT22;9239;50.932;3.142;2024-01-06T09:49:38;7.10;99.90
18229;DHT22;9239;50.932;3.142;2024-01-06T09:52:10;7.20;99.90
18229;DHT22;9239;50.932;3.142;2024-01-06T09:54:43;7.20;99.90
18229;DHT22;9239;50.932;3.142;2024-01-06T09:57:12;7.20;99.90
18229;DHT22;9239;50.932;3.142;2024-01-06T09:59:40;7.20;99.90
18229;DHT22;9239;50.932;3.142;2024-01-06T10:02:12;7.10;99.90
18229;DHT22;9239;50.932;3.142;2024-01-06T10:04:40;7.10;99.90
18229;DHT22;9239;50.932;3.142;2024-01-06T10:07:07;7.10;99.90
18229;DHT22;9239;50.932;3.142;2024-01-06T10:09:38;7.00;99.90
18229;DHT22;9239;50.932;3.142;2024-01-06T10:12:06;7.00;99.90
18229;DHT22;9239;50.932;3.142;2024-01-06T10:14:33;7.10;99.90
18229;DHT22;9239;50.932;3.142;2024-01-06T10:17:00;7.00;99.90
18229;DHT22;9239;50.932;3.142;2024-01-06T10:19:29;7.10;99.90
18229;DHT22;9239;50.932;3.142;2024-01-06T10:21:56;7.10;99.90
18229;DHT22;9239;50.932;3.142;2024-01-06T10:24:27;7.00;99.90
18229;DHT22;9239;50.932;3.142;2024-01-06T10:26:56;7.00;99.90
18229;DHT22;9239;50.932;3.142;2024-01-06T10:29:25;7.00;99.90
18229;DHT22;9239;50.932;3.142;2024-01-06T10:31:52;6.90;99.90
18229;DHT22;9239;50.932;3.142;2024-01-06T10:34:20;7.00;99.90
18229;DHT22;9239;50.932;3.142;2024-01-06T10:36:49;6.90;99.90
18229;DHT22;9239;50.932;3.142;2024-01-06T10:39:18;6.90;99.90
18229;DHT22;9239;50.932;3.142;2024-01-06T10:41:45;6.90;99.90
18229;DHT22;9239;50.932;3.142;2024-01-06T10:44:13;6.90;99.90
18229;DHT22;9239;50.932;3.142;2024-01-06T10:46:41;6.90;99.90
18229;DHT22;9239;50.932;3.142;2024-01-06T10:49:09;6.90;99.90
18229;DHT22;9239;50.932;3.142;2024-01-06T10:51:37;6.90;99.90
18229;DHT22;9239;50.932;3.142;2024-01-06T10:54:06;6.80;99.90
18229;DHT22;9239;50.932;3.142;2024-01-06T10:56:37;6.70;99.90
18229;DHT22;9239;50.932;3.142;2024-01-06T10:59:04;6.70;99.90
18229;DHT22;9239;50.932;3.142;2024-01-06T11:01:33;6.70;99.90
18229;DHT22;9239;50.932;3.142;2024-01-06T11:04:02;6.80;99.90
18229;DHT22;9239;50.932;3.142;2024-01-06T11:06:31;6.80;99.90
18229;DHT22;9239;50.932;3.142;2024-01-06T11:09:04;6.80;99.90
18229;DHT22;9239;50.932;3.142;2024-01-06T11:11:35;6.80;99.90
18229;DHT22;9239;50.932;3.142;2024-01-06T11:14:18;6.80;99.90
18229;DHT22;9239;50.932;3.142;2024-01-06T11:16:45;6.80;99.90
18229;DHT22;9239;50.932;3.142;2024-01-06T11:19:44;6.90;99.90
18229;DHT22;9239;50.932;3.142;2024-01-06T11:22:19;7.00;99.90
18229;DHT22;9239;50.932;3.142;2024-01-06T11:24:47;7.00;99.90
18229;DHT22;9239;50.932;3.142;2024-01-06T11:27:19;7.00;99.90
18229;DHT22;9239;50.932;3.142;2024-01-06T11:29:46;7.00;99.90
18229;DHT22;9239;50.932;3.142;2024-01-06T11:32:17;7.10;99.90
18229;DHT22;9239;50.932;3.142;2024-01-06T11:34:48;7.00;99.90
18229;DHT22;9239;50.932;3.142;2024-01-06T11:37:18;7.00;99.90
18229;DHT22;9239;50.932;3.142;2024-01-06T11:39:45;7.00;99.90
18229;DHT22;9239;50.932;3.142;2024-01-06T11:42:13;7.10;99.90
18229;DHT22;9239;50.932;3.142;2024-01-06T11:44:44;7.10;99.90
18229;DHT22;9239;50.932;3.142;2024-01-06T11:47:12;7.10;99.90
18229;DHT22;9239;50.932;3.142;2024-01-06T11:49:44;7.10;99.90
18229;DHT22;9239;50.932;3.142;2024-01-06T11:52:14;7.00;99.90
18229;DHT22;9239;50.932;3.142;2024-01-06T11:54:41;7.00;99.90
18229;DHT22;9239;50.932;3.142;2024-01-06T11:57:08;6.90;99.90
18229;DHT22;9239;50.932;3.142;2024-01-06T11:59:36;6.90;99.90
18229;DHT22;9239;50.932;3.142;2024-01-06T12:02:05;6.80;99.90
18229;DHT22;9239;50.932;3.142;2024-01-06T12:04:32;6.80;99.90
18229;DHT22;9239;50.932;3.142;2024-01-06T12:07:05;6.90;99.90
18229;DHT22;9239;50.932;3.142;2024-01-06T12:09:33;7.00;99.90
18229;DHT22;9239;50.932;3.142;2024-01-06T12:12:03;7.00;99.90
18229;DHT22;9239;50.932;3.142;2024-01-06T12:14:32;7.10;99.90
18229;DHT22;9239;50.932;3.142;2024-01-06T12:16:59;7.20;99.90
18229;DHT22;9239;50.932;3.142;2024-01-06T12:19:30;7.20;99.90
18229;DHT22;9239;50.932;3.142;2024-01-06T12:21:57;7.20;99.90
18229;DHT22;9239;50.932;3.142;2024-01-06T12:24:27;7.30;99.90
18229;DHT22;9239;50.932;3.142;2024-01-06T12:26:56;7.30;99.90
18229;DHT22;9239;50.932;3.142;2024-01-06T12:29:26;7.30;99.90
18229;DHT22;9239;50.932;3.142;2024-01-06T12:31:55;7.20;99.90
18229;DHT22;9239;50.932;3.142;2024-01-06T12:34:22;7.10;99.90
18229;DHT22;9239;50.932;3.142;2024-01-06T12:36:52;7.10;99.90
18229;DHT22;9239;50.932;3.142;2024-01-06T12:39:20;7.10;99.90
18229;DHT22;9239;50.932;3.142;2024-01-06T12:41:50;6.90;99.90
18229;DHT22;9239;50.932;3.142;2024-01-06T12:44:17;7.00;99.90
18229;DHT22;9239;50.932;3.142;2024-01-06T12:46:44;6.90;99.90
18229;DHT22;9239;50.932;3.142;2024-01-06T12:49:11;6.90;99.90
18229;DHT22;9239;50.932;3.142;2024-01-06T12:51:38;7.00;99.90
18229;DHT22;9239;50.932;3.142;2024-01-06T12:54:06;7.00;99.90
18229;DHT22;9239;50.932;3.142;2024-01-06T12:56:33;7.10;99.90
18229;DHT22;9239;50.932;3.142;2024-01-06T12:59:01;7.00;99.90
18229;DHT22;9239;50.932;3.142;2024-01-06T13:01:28;7.10;99.90
18229;DHT22;9239;50.932;3.142;2024-01-06T13:03:55;7.10;99.90
18229;DHT22;9239;50.932;3.142;2024-01-06T13:06:24;7.10;99.90
18229;DHT22;9239;50.932;3.142;2024-01-06T13:08:52;7.00;99.90
18229;DHT22;9239;50.932;3.142;2024-01-06T13:11:20;7.20;99.90
18229;DHT22;9239;50.932;3.142;2024-01-06T13:13:47;7.20;99.90
18229;DHT22;9239;50.932;3.142;2024-01-06T13:16:14;7.20;99.90
18229;DHT22;9239;50.932;3.142;2024-01-06T13:18:41;7.10;99.90
18229;DHT22;9239;50.932;3.142;2024-01-06T13:21:08;7.10;99.90
18229;DHT22;9239;50.932;3.142;2024-01-06T13:23:35;7.10;99.90
18229;DHT22;9239;50.932;3.142;2024-01-06T13:26:02;7.10;99.90
18229;DHT22;9239;50.932;3.142;2024-01-06T13:28:31;7.00;99.90
18229;DHT22;9239;50.932;3.142;2024-01-06T13:30:57;7.10;99.90
18229;DHT22;9239;50.932;3.142;2024-01-06T13:33:24;7.10;99.90
18229;DHT22;9239;50.932;3.142;2024-01-06T13:35:51;7.20;99.90
18229;DHT22;9239;50.932;3.142;2024-01-06T13:38:18;7.20;99.90
18229;DHT22;9239;50.932;3.142;2024-01-06T13:40:45;7.20;99.90
18229;DHT22;9239;50.932;3.142;2024-01-06T13:43:12;7.20;99.90
18229;DHT22;9239;50.932;3.142;2024-01-06T13:45:42;7.30;99.90
18229;DHT22;9239;50.932;3.142;2024-01-06T13:48:10;7.30;99.90
18229;DHT22;9239;50.932;3.142;2024-01-06T13:50:37;7.40;99.90
18229;DHT22;9239;50.932;3.142;2024-01-06T13:53:05;7.30;99.90
18229;DHT22;9239;50.932;3.142;2024-01-06T13:55:33;7.30;99.90
18229;DHT22;9239;50.932;3.142;2024-01-06T13:58:00;7.40;99.90
18229;DHT22;9239;50.932;3.142;2024-01-06T14:00:27;7.20;99.90
18229;DHT22;9239;50.932;3.142;2024-01-06T14:02:55;7.10;99.90
18229;DHT22;9239;50.932;3.142;2024-01-06T14:05:23;6.90;99.90
18229;DHT22;9239;50.932;3.142;2024-01-06T14:07:50;6.70;99.90
18229;DHT22;9239;50.932;3.142;2024-01-06T14:10:17;6.50;99.90
18229;DHT22;9239;50.932;3.142;2024-01-06T14:12:44;6.40;99.90
18229;DHT22;9239;50.932;3.142;2024-01-06T14:15:11;6.40;99.90
18229;DHT22;9239;50.932;3.142;2024-01-06T14:17:38;6.40;99.90
18229;DHT22;9239;50.932;3.142;2024-01-06T14:20:08;6.50;99.90
18229;DHT22;9239;50.932;3.142;2024-01-06T14:22:38;6.50;99.90
18229;DHT22;9239;50.932;3.142;2024-01-06T14:25:06;6.50;99.90
18229;DHT22;9239;50.932;3.142;2024-01-06T14:27:33;6.60;99.90
18229;DHT22;9239;50.932;3.142;2024-01-06T14:30:00;6.60;99.90
18229;DHT22;9239;50.932;3.142;2024-01-06T14:32:27;6.70;99.90
18229;DHT22;9239;50.932;3.142;2024-01-06T14:34:55;6.70;99.90
18229;DHT22;9239;50.932;3.142;2024-01-06T14:37:23;6.70;99.90
18229;DHT22;9239;50.932;3.142;2024-01-06T14:39:50;6.70;99.90
18229;DHT22;9239;50.932;3.142;2024-01-06T14:42:17;6.60;99.90
18229;DHT22;9239;50.932;3.142;2024-01-06T14:44:45;6.60;99.90
18229;DHT22;9239;50.932;3.142;2024-01-06T14:47:12;6.50;99.90
18229;DHT22;9239;50.932;3.142;2024-01-06T14:49:39;6.40;99.90
18229;DHT22;9239;50.932;3.142;2024-01-06T14:52:06;6.40;99.90
18229;DHT22;9239;50.932;3.142;2024-01-06T14:54:36;6.40;99.90
18229;DHT22;9239;50.932;3.142;2024-01-06T14:57:03;6.30;99.90
18229;DHT22;9239;50.932;3.142;2024-01-06T14:59:31;6.30;99.90
18229;DHT22;9239;50.932;3.142;2024-01-06T15:01:58;6.30;99.90
18229;DHT22;9239;50.932;3.142;2024-01-06T15:04:25;6.20;99.90
18229;DHT22;9239;50.932;3.142;2024-01-06T15:06:52;6.30;99.90
18229;DHT22;9239;50.932;3.142;2024-01-06T15:09:18;6.20;99.90
18229;DHT22;9239;50.932;3.142;2024-01-06T15:11:47;6.20;99.90
18229;DHT22;9239;50.932;3.142;2024-01-06T15:14:14;6.20;99.90
18229;DHT22;9239;50.932;3.142;2024-01-06T15:16:41;6.10;99.90
18229;DHT22;9239;50.932;3.142;2024-01-06T15:19:07;6.20;99.90
18229;DHT22;9239;50.932;3.142;2024-01-06T15:21:34;6.10;99.90
18229;DHT22;9239;50.932;3.142;2024-01-06T15:24:02;6.20;99.90
18229;DHT22;9239;50.932;3.142;2024-01-06T15:26:30;6.10;99.90
18229;DHT22;9239;50.932;3.142;2024-01-06T15:28:59;6.00;99.90
18229;DHT22;9239;50.932;3.142;2024-01-06T15:31:26;6.00;99.90
18229;DHT22;9239;50.932;3.142;2024-01-06T15:33:54;5.90;99.90
18229;DHT22;9239;50.932;3.142;2024-01-06T15:36:21;5.80;99.90
18229;DHT22;9239;50.932;3.142;2024-01-06T15:38:49;5.70;99.90
18229;DHT22;9239;50.932;3.142;2024-01-06T15:41:16;5.70;99.90
18229;DHT22;9239;50.932;3.142;2024-01-06T15:43:43;5.60;99.90
18229;DHT22;9239;50.932;3.142;2024-01-06T15:46:11;5.60;99.90
18229;DHT22;9239;50.932;3.142;2024-01-06T15:48:39;5.60;99.90
18229;DHT22;9239;50.932;3.142;2024-01-06T15:51:06;5.60;99.90
18229;DHT22;9239;50.932;3.142;2024-01-06T15:53:33;5.60;99.90
18229;DHT22;9239;50.932;3.142;2024-01-06T15:56:00;5.50;99.90
18229;DHT22;9239;50.932;3.142;2024-01-06T15:58:28;5.50;99.90
18229;DHT22;9239;50.932;3.142;2024-01-06T16:00:55;5.50;99.90
18229;DHT22;9239;50.932;3.142;2024-01-06T16:03:23;5.50;99.90